ワルシャワ の空港の天気 - METARとTAF

ワルシャワ・フレデリック・ショパン空港 ( EPWA / WAW ) - ポーランド ワルシャワ
飛行場実況気象(Metar)
観測時間11/22 13:30 CET (11/22 12:30 UTC)
風向・風速南東 5m/s
視程4500m
天気現象弱い雨 弱い雪 もや
全天の8割程度の雲 雲底高度 210m
気温2℃
湿度93%
気圧1012hPa
METAREPWA 221230Z 14009KT 4500 -RASN BR BKN007 02/01 Q1012 NOSIG
過去の天気等 Google飛行場航空写真 Wunderground天気予報

過去48時間のMETAR

飛行場予報(TAF)
発表時間: 11/22 12:30 CET (11/22 11:30 UTC)
予報対象時間: 22日13時 CET ~ 23日13時 CET
風向・風速南南東 4m/s
視程4,500m
天気現象もや
全天の8割程度の雲 雲底高度 300m
22日13時 CET ~ 22日21時 CET に一時的に
視程1,500m
天気現象弱い雨 霧雨 もや
全天の8割程度の雲 雲底高度 150m
22日21時 CET から 確率 40% で
視程600m
天気現象霧雨 霧
全天を覆う雲 雲底高度 60m
23日9時 CET ~ 23日11時 CET に徐々に
視程8,000m
全天の4割程度の雲 雲底高度 460m
TAF EPWA 221130Z 2212/2312 15008KT 4500 BR BKN010
TEMPO 2212/2220 1500 -RA DZ BR BKN005
PROB40 2220/2307 0600 DZ FG OVC002
BECMG 2308/2310 8000 SCT015